Dades meteomassalio
Diari Summary for Febrer 21, 2017 Units:  English    Metric   Both
« Previous Day
Next Day »
Diari Semanal Mensual Anual Personalitzat
  Maxima: Minima: Mijana:
Temperatura: TemperatureC °F 0.5 °F 7.1 °F
Rosada: DewpointC °F -0.5 °F 3.3 °F
Humitat: Humidity % 50 % 79 %
Velocitat del vent: WindSpeedKMH mph 0.0 mph 2.8 mph
Racha vent: WindSpeedGustKMH mph - -
Vent:- - West
Pressio: PressurehPa in 1023.9 in -
Pluja: 0.3 in    
Historical Graphs
 
 
Tabular Data for Febrer 21, 2017
Time Temperature Dew Point Pressure Wind Wind Speed Wind Gust Humidity Rainfall Rate (Hourly) solar Conditions
TemperatureC °F DewpointC °F PressurehPa in Calm     Humidity % HourlyPrecipMM in SolarRadiationWatts/m^2 W/m2 Conditions
00:03 3.5 °F 2.0 °F 1028.3 in Calm     90 % 0.0 in 0.0 W/m2 RA
00:08 3.3 °F 2.0 °F 1028.3 in Calm     91 % 0.0 in 0.0 W/m2 CLR
00:13 3.2 °F 1.9 °F 1028.3 in Calm     91 % 0.0 in 0.0 W/m2 CLR
00:18 3.1 °F 1.8 °F 1028.3 in Calm     91 % 0.0 in 0.0 W/m2 CLR
00:23 2.9 °F 1.6 °F 1028.3 in Calm     91 % 0.0 in 0.0 W/m2 CLR
00:28 2.9 °F 1.6 °F 1028.3 in Calm     91 % 0.0 in 0.0 W/m2 CLR
00:33 3.0 °F 1.8 °F 1028.3 in Calm     92 % 0.0 in 0.0 W/m2 CLR
00:38 2.9 °F 1.6 °F 1028.3 in Calm     91 % 0.0 in 0.0 W/m2 CLR
00:43 2.8 °F 1.4 °F 1028.3 in Calm     91 % 0.0 in 0.0 W/m2 CLR
00:48 2.7 °F 1.6 °F 1028.3 in Calm     92 % 0.0 in 0.0 W/m2 CLR
00:53 2.7 °F 1.6 °F 1028.3 in Calm     92 % 0.0 in 0.0 W/m2 CLR
00:58 2.7 °F 1.6 °F 1028.3 in Calm     92 % 0.0 in 0.0 W/m2 CLR
01:03 2.8 °F 1.6 °F 1028.3 in Calm     92 % 0.0 in 0.0 W/m2 CLR
01:08 2.8 °F 1.6 °F 1028.3 in Calm     92 % 0.0 in 0.0 W/m2 CLR
01:13 2.6 °F 1.3 °F 1028.3 in Calm     91 % 0.0 in 0.0 W/m2 CLR
01:18 2.5 °F 1.3 °F 1028.3 in Calm     92 % 0.0 in 0.0 W/m2 CLR
01:23 2.7 °F 1.7 °F 1028.3 in Calm     93 % 0.0 in 0.0 W/m2 CLR
01:29 2.9 °F 1.7 °F 1028.3 in Calm     92 % 0.0 in 0.0 W/m2 CLR
01:34 3.1 °F 2.1 °F 1028.3 in Calm     93 % 0.0 in 0.0 W/m2 CLR
01:39 3.2 °F 2.1 °F 1028.3 in Calm     92 % 0.0 in 0.0 W/m2 CLR
01:44 3.1 °F 1.9 °F 1028.3 in Calm     92 % 0.0 in 0.0 W/m2 CLR
01:49 3.0 °F 1.8 °F 1028.3 in Calm     92 % 0.0 in 0.0 W/m2 CLR
01:54 3.0 °F 1.8 °F 1028.3 in Calm     92 % 0.0 in 0.0 W/m2 CLR
01:59 2.9 °F 1.7 °F 1028.3 in Calm     92 % 0.0 in 0.0 W/m2 CLR
02:04 2.7 °F 1.6 °F 1028.3 in Calm     92 % 0.0 in 0.0 W/m2 CLR
02:09 2.7 °F 1.5 °F 1028.3 in Calm     92 % 0.0 in 0.0 W/m2 CLR
02:14 2.6 °F 1.4 °F 1028.3 in Calm     92 % 0.0 in 0.0 W/m2 CLR
02:19 2.7 °F 1.7 °F 1028.3 in Calm     93 % 0.0 in 0.0 W/m2 CLR
02:24 2.6 °F 1.4 °F 1028.3 in Calm     92 % 0.0 in 0.0 W/m2 CLR
02:29 2.6 °F 1.4 °F 1028.7 in Calm     92 % 0.0 in 0.0 W/m2 CLR
02:34 2.5 °F 1.3 °F 1028.7 in Calm     92 % 0.0 in 0.0 W/m2 CLR
02:39 2.5 °F 1.3 °F 1028.7 in Calm     92 % 0.0 in 0.0 W/m2 CLR
02:44 2.3 °F 1.2 °F 1028.7 in Calm     92 % 0.0 in 0.0 W/m2 CLR
02:49 2.1 °F 0.9 °F 1028.7 in Calm     92 % 0.0 in 0.0 W/m2 CLR
02:54 1.9 °F 0.8 °F 1028.3 in Calm     92 % 0.0 in 0.0 W/m2 CLR
02:59 1.8 °F 0.6 °F 1028.7 in Calm     92 % 0.0 in 0.0 W/m2 CLR
03:04 1.8 °F 0.6 °F 1028.7 in Calm     92 % 0.0 in 0.0 W/m2 CLR
03:09 1.8 °F 0.6 °F 1028.3 in Calm     92 % 0.0 in 0.0 W/m2 CLR
03:14 1.7 °F 0.6 °F 1028.3 in Calm     92 % 0.0 in 0.0 W/m2 CLR
03:19 1.7 °F 0.7 °F 1028.3 in Calm     93 % 0.0 in 0.0 W/m2 CLR
03:24 1.6 °F 0.4 °F 1028.3 in Calm     92 % 0.0 in 0.0 W/m2 CLR
03:29 1.5 °F 0.3 °F 1028.3 in Calm     92 % 0.0 in 0.0 W/m2 CLR
03:34 1.6 °F 0.6 °F 1028.3 in Calm     93 % 0.0 in 0.0 W/m2 CLR
03:39 1.6 °F 0.6 °F 1028.3 in Calm     93 % 0.0 in 0.0 W/m2 CLR
03:44 1.4 °F 0.3 °F 1028.3 in Calm     92 % 0.0 in 0.0 W/m2 CLR
03:49 1.3 °F 0.3 °F 1028.3 in Calm     93 % 0.0 in 0.0 W/m2 CLR
03:54 1.2 °F 0.2 °F 1028.0 in Calm     93 % 0.0 in 0.0 W/m2 CLR
03:59 1.2 °F 0.2 °F 1028.3 in Calm     93 % 0.0 in 0.0 W/m2 CLR
04:04 1.1 °F 0.1 °F 1028.3 in Calm     93 % 0.0 in 0.0 W/m2 CLR
04:09 1.2 °F 0.2 °F 1028.3 in Calm     93 % 0.0 in 0.0 W/m2 CLR
04:14 1.2 °F 0.2 °F 1028.3 in Calm     93 % 0.0 in 0.0 W/m2 CLR
04:19 1.2 °F 0.2 °F 1028.3 in Calm     93 % 0.0 in 0.0 W/m2 CLR
04:24 1.1 °F 0.1 °F 1028.3 in Calm     93 % 0.0 in 0.0 W/m2 CLR
04:29 1.1 °F 0.1 °F 1028.3 in Calm     93 % 0.0 in 0.0 W/m2 CLR
04:34 0.9 °F -0.1 °F 1028.3 in Calm     93 % 0.0 in 0.0 W/m2 CLR
04:39 1.2 °F 0.2 °F 1028.3 in Calm     93 % 0.0 in 0.0 W/m2 CLR
04:44 1.5 °F 0.5 °F 1028.3 in Calm     93 % 0.0 in 0.0 W/m2 CLR
04:49 1.4 °F 0.4 °F 1028.3 in Calm     93 % 0.0 in 0.0 W/m2 CLR
04:54 1.4 °F 0.4 °F 1028.3 in Calm     93 % 0.0 in 0.0 W/m2 CLR
04:59 1.3 °F 0.3 °F 1028.3 in Calm     93 % 0.0 in 0.0 W/m2 CLR
05:04 1.3 °F 0.3 °F 1028.0 in Calm     93 % 0.0 in 0.0 W/m2 CLR
05:09 1.3 °F 0.3 °F 1028.0 in Calm     93 % 0.0 in 0.0 W/m2 CLR
05:14 1.4 °F 0.4 °F 1028.3 in Calm     93 % 0.0 in 0.0 W/m2 CLR
05:19 1.5 °F 0.7 °F 1028.0 in Calm     94 % 0.0 in 0.0 W/m2 CLR
05:24 1.4 °F 0.4 °F 1028.0 in Calm     93 % 0.0 in 0.0 W/m2 CLR
05:29 1.3 °F 0.3 °F 1028.0 in Calm     93 % 0.0 in 0.0 W/m2 CLR
05:34 1.2 °F 0.2 °F 1028.0 in Calm     93 % 0.0 in 0.0 W/m2 CLR
05:39 1.1 °F 0.1 °F 1028.3 in Calm     93 % 0.0 in 0.0 W/m2 CLR
05:44 1.1 °F 0.1 °F 1028.3 in Calm     93 % 0.0 in 0.0 W/m2 CLR
05:49 1.2 °F 0.2 °F 1028.3 in Calm     93 % 0.0 in 0.0 W/m2 CLR
05:54 1.2 °F 0.2 °F 1028.3 in Calm     93 % 0.0 in 0.0 W/m2 CLR
05:59 1.1 °F 0.1 °F 1028.3 in Calm     93 % 0.0 in 0.0 W/m2 CLR
06:05 1.1 °F 0.1 °F 1028.3 in Calm     93 % 0.0 in 0.0 W/m2 CLR
06:10 1.0 °F 0.0 °F 1028.3 in Calm     93 % 0.0 in 0.0 W/m2 CLR
06:15 1.1 °F 0.1 °F 1028.3 in Calm     93 % 0.0 in 0.0 W/m2 CLR
06:20 1.1 °F 0.1 °F 1028.3 in Calm     93 % 0.0 in 0.0 W/m2 CLR
06:25 1.1 °F 0.1 °F 1028.3 in Calm     93 % 0.0 in 0.0 W/m2 CLR
06:30 1.0 °F 0.0 °F 1028.3 in Calm     93 % 0.0 in 0.0 W/m2 CLR
06:35 0.8 °F -0.2 °F 1028.3 in Calm     93 % 0.0 in 0.0 W/m2 CLR
06:40 0.8 °F -0.2 °F 1028.3 in Calm     93 % 0.0 in 0.0 W/m2 CLR
06:45 0.9 °F -0.1 °F 1028.3 in Calm     93 % 0.0 in 0.0 W/m2 CLR
06:50 1.0 °F 0.2 °F 1028.3 in Calm     94 % 0.0 in 0.0 W/m2 CLR
06:55 1.1 °F 0.2 °F 1028.3 in Calm     94 % 0.0 in 0.0 W/m2 CLR
07:00 0.9 °F -0.1 °F 1028.3 in Calm     93 % 0.0 in 0.0 W/m2 CLR
07:05 0.7 °F -0.3 °F 1028.3 in Calm     93 % 0.0 in 0.0 W/m2 CLR
07:10 0.7 °F -0.3 °F 1028.3 in Calm     93 % 0.0 in 0.0 W/m2 CLR
07:15 0.8 °F 0.0 °F 1028.3 in Calm     94 % 0.0 in 0.0 W/m2 CLR
07:20 0.9 °F 0.1 °F 1028.3 in Calm     94 % 0.0 in 0.0 W/m2 CLR
07:25 0.9 °F 0.1 °F 1028.7 in Calm     94 % 0.0 in 0.0 W/m2 CLR
07:30 0.9 °F -0.1 °F 1028.3 in Calm     93 % 0.0 in 0.0 W/m2 CLR
07:35 0.8 °F -0.2 °F 1028.7 in Calm     93 % 0.0 in 0.0 W/m2 CLR
07:40 0.7 °F -0.3 °F 1028.7 in Calm     93 % 0.0 in 0.0 W/m2 OVC
07:45 0.7 °F -0.3 °F 1028.7 in Calm     93 % 0.0 in 5.0 W/m2 OVC
07:50 0.6 °F -0.4 °F 1028.7 in Calm     93 % 0.0 in 7.0 W/m2 BKN
07:55 0.6 °F -0.2 °F 1028.7 in Calm     94 % 0.0 in 9.0 W/m2 BKN
08:00 0.5 °F -0.5 °F 1028.7 in Calm     93 % 0.0 in 12.0 W/m2 BKN
08:05 0.6 °F -0.4 °F 1028.7 in Calm     93 % 0.0 in 16.0 W/m2 BKN
08:10 0.7 °F -0.2 °F 1029.0 in Calm     94 % 0.0 in 21.0 W/m2 BKN
08:15 0.8 °F 0.0 °F 1029.0 in Calm     94 % 0.0 in 28.0 W/m2 BKN
08:20 1.1 °F 0.3 °F 1029.0 in Calm     94 % 0.0 in 37.0 W/m2 BKN
08:25 1.2 °F 0.4 °F 1029.0 in Calm     94 % 0.0 in 46.0 W/m2 BKN
08:30 1.3 °F 0.5 °F 1029.0 in Calm     94 % 0.0 in 62.0 W/m2 SCT
08:35 1.5 °F 0.7 °F 1029.0 in Calm     94 % 0.0 in 76.0 W/m2 FEW
08:40 1.6 °F 0.7 °F 1029.0 in Calm     94 % 0.0 in 88.0 W/m2 CLR
08:45 1.9 °F 1.0 °F 1029.0 in Calm     94 % 0.3 in 104.0 W/m2 RA
08:50 2.1 °F 1.2 °F 1029.0 in Calm     94 % 0.3 in 111.0 W/m2 CLR
08:55 2.3 °F 1.4 °F 1029.0 in Calm     94 % 0.3 in 135.0 W/m2 CLR
09:00 2.6 °F 1.7 °F 1029.0 in Calm     94 % 0.3 in 151.0 W/m2 CLR
09:05 3.0 °F 2.1 °F 1028.7 in Calm     94 % 0.3 in 146.0 W/m2 CLR
09:10 3.4 °F 2.5 °F 1028.7 in Calm     94 % 0.3 in 132.0 W/m2 CLR
09:15 3.6 °F 2.6 °F 1028.7 in Calm     93 % 0.3 in 116.0 W/m2 CLR
09:20 3.8 °F 2.7 °F 1028.7 in Calm     93 % 0.3 in 221.0 W/m2 CLR
09:25 4.2 °F 3.2 °F 1029.0 in Calm     93 % 0.3 in 239.0 W/m2 CLR
09:30 4.7 °F 3.7 °F 1028.7 in Calm     93 % 0.3 in 257.0 W/m2 CLR
09:35 5.1 °F 4.1 °F 1028.7 in Calm     93 % 0.3 in 271.0 W/m2 CLR
09:40 5.6 °F 4.4 °F 1028.7 in Calm     92 % 0.3 in 285.0 W/m2 CLR
09:45 6.1 °F 4.8 °F 1028.7 in Calm     92 % 0.0 in 297.0 W/m2 CLR
09:50 6.5 °F 5.0 °F 1028.7 in Calm     90 % 0.0 in 311.0 W/m2 CLR
09:55 6.9 °F 5.4 °F 1028.7 in Calm     90 % 0.0 in 325.0 W/m2 CLR
10:00 7.2 °F 5.3 °F 1028.7 in Calm     88 % 0.0 in 338.0 W/m2 CLR
10:05 7.4 °F 5.4 °F 1028.7 in Calm     87 % 0.0 in 350.0 W/m2 CLR
10:10 7.8 °F 5.6 °F 1028.3 in Calm     86 % 0.0 in 366.0 W/m2 CLR
10:15 8.2 °F 6.0 °F 1028.3 in Calm     86 % 0.0 in 376.0 W/m2 CLR
10:20 8.6 °F 6.1 °F 1028.3 in Calm     84 % 0.0 in 383.0 W/m2 CLR
10:25 8.9 °F 6.0 °F 1028.3 in Calm     82 % 0.0 in 397.0 W/m2 CLR
10:30 9.3 °F 6.0 °F 1028.3 in West 7.4 mph 7.4 mph 80 % 0.0 in 415.0 W/m2 CLR
10:35 9.8 °F 6.1 °F 1028.3 in NW 14.8 mph 14.8 mph 78 % 0.0 in 425.0 W/m2 CLR
10:41 9.9 °F 5.7 °F 1028.0 in West 14.8 mph 14.8 mph 75 % 0.0 in 438.0 W/m2 CLR
10:46 10.2 °F 6.1 °F 1028.0 in WNW 11.1 mph 11.7 mph 76 % 0.0 in 450.0 W/m2 CLR
10:51 10.2 °F 6.0 °F 1028.0 in WNW 9.3 mph 9.3 mph 75 % 0.0 in 462.0 W/m2 CLR
10:56 10.4 °F 6.2 °F 1028.0 in WNW 13.0 mph 13.0 mph 75 % 0.0 in 473.0 W/m2 CLR
11:01 10.6 °F 5.9 °F 1028.0 in WNW 9.3 mph 9.3 mph 73 % 0.0 in 483.0 W/m2 CLR
11:06 10.8 °F 5.9 °F 1028.0 in NW 7.4 mph 7.4 mph 72 % 0.0 in 494.0 W/m2 CLR
11:11 10.8 °F 5.6 °F 1028.0 in WNW 11.1 mph 11.1 mph 70 % 0.0 in 506.0 W/m2 CLR
11:16 11.0 °F 6.2 °F 1027.7 in WNW 11.3 mph 11.3 mph 72 % 0.0 in 513.0 W/m2 CLR
11:21 11.1 °F 5.8 °F 1027.7 in WSW 12.9 mph 12.9 mph 70 % 0.0 in 522.0 W/m2 CLR
11:26 11.2 °F 5.7 °F 1027.7 in NW 11.1 mph 11.1 mph 69 % 0.0 in 534.0 W/m2 CLR
11:31 11.4 °F 6.2 °F 1027.7 in West 11.1 mph 11.1 mph 70 % 0.0 in 540.0 W/m2 CLR
11:36 11.7 °F 6.4 °F 1027.7 in NW 13.0 mph 13.0 mph 70 % 0.0 in 550.0 W/m2 CLR
11:41 11.8 °F 5.8 °F 1027.7 in West 9.3 mph 9.3 mph 67 % 0.0 in 555.0 W/m2 CLR
11:46 11.8 °F 5.8 °F 1027.7 in NW 14.8 mph 14.8 mph 67 % 0.0 in 563.0 W/m2 CLR
11:51 11.8 °F 6.1 °F 1027.7 in WNW 11.1 mph 11.1 mph 68 % 0.0 in 571.0 W/m2 CLR
11:56 11.9 °F 6.2 °F 1027.7 in NW 13.0 mph 13.0 mph 68 % 0.0 in 578.0 W/m2 CLR
12:01 12.0 °F 6.1 °F 1027.7 in WNW 14.8 mph 14.8 mph 67 % 0.0 in 584.0 W/m2 CLR
12:06 12.1 °F 5.9 °F 1027.7 in NNW 11.1 mph 11.1 mph 66 % 0.0 in 589.0 W/m2 CLR
12:11 12.3 °F 6.6 °F 1027.7 in NW 16.7 mph 16.7 mph 68 % 0.0 in 594.0 W/m2 CLR
12:16 12.4 °F 6.0 °F 1027.3 in NW 14.5 mph 14.5 mph 65 % 0.0 in 603.0 W/m2 CLR
12:21 12.4 °F 6.3 °F 1027.3 in NW 16.7 mph 16.7 mph 66 % 0.0 in 603.0 W/m2 CLR
12:26 12.4 °F 6.1 °F 1027.3 in NNW 7.4 mph 7.4 mph 65 % 0.0 in 612.0 W/m2 CLR
12:31 12.5 °F 6.1 °F 1027.3 in WNW 14.8 mph 14.8 mph 65 % 0.0 in 615.0 W/m2 CLR
12:36 12.6 °F 6.4 °F 1027.3 in NW 13.0 mph 13.0 mph 66 % 0.0 in 617.0 W/m2 CLR
12:41 12.7 °F 5.8 °F 1027.3 in NNW 13.0 mph 13.0 mph 63 % 0.0 in 621.0 W/m2 CLR
12:46 12.8 °F 5.7 °F 1027.0 in NW 9.3 mph 9.3 mph 62 % 0.0 in 622.0 W/m2 CLR
12:51 12.9 °F 6.2 °F 1027.0 in NNW 1.6 mph 1.6 mph 64 % 0.0 in 628.0 W/m2 CLR
12:56 13.0 °F 5.9 °F 1027.0 in WNW 9.3 mph 9.3 mph 62 % 0.0 in 628.0 W/m2 CLR
13:01 13.2 °F 6.3 °F 1027.0 in NNW 3.7 mph   63 % 0.0 in 629.0 W/m2 CLR
13:06 13.2 °F 6.1 °F 1027.0 in WNW 14.8 mph 14.8 mph 62 % 0.0 in 631.0 W/m2 CLR
13:11 13.3 °F 6.2 °F 1026.6 in West 9.7 mph 9.7 mph 62 % 0.0 in 631.0 W/m2 CLR
13:16 13.3 °F 6.4 °F 1026.6 in Calm     63 % 0.0 in 633.0 W/m2 CLR
13:21 13.6 °F 6.7 °F 1026.6 in NNW 7.4 mph 7.4 mph 63 % 0.0 in 628.0 W/m2 CLR
13:26 13.6 °F 6.4 °F 1026.6 in NNW 13.0 mph 13.0 mph 62 % 0.0 in 628.0 W/m2 CLR
13:31 13.8 °F 6.8 °F 1026.3 in North 13.0 mph 13.0 mph 63 % 0.0 in 628.0 W/m2 CLR
13:36 13.8 °F 6.8 °F 1026.3 in North 11.1 mph 11.1 mph 63 % 0.0 in 629.0 W/m2 CLR
13:41 13.8 °F 6.8 °F 1026.3 in NNW 12.9 mph 12.9 mph 63 % 0.0 in 624.0 W/m2 CLR
13:46 13.7 °F 6.7 °F 1026.3 in North 9.3 mph 9.3 mph 63 % 0.0 in 624.0 W/m2 CLR
13:51 13.7 °F 7.1 °F 1026.0 in NNE 9.7 mph 9.7 mph 64 % 0.0 in 617.0 W/m2 CLR
13:56 13.8 °F 7.3 °F 1026.0 in North 5.6 mph 5.6 mph 65 % 0.0 in 606.0 W/m2 CLR
14:01 13.9 °F 7.2 °F 1026.0 in NNW 9.3 mph 9.3 mph 64 % 0.0 in 615.0 W/m2 CLR
14:06 13.9 °F 6.8 °F 1026.0 in NW 8.0 mph 8.0 mph 62 % 0.0 in 612.0 W/m2 CLR
14:11 13.9 °F 7.0 °F 1025.6 in NNW 7.4 mph 7.4 mph 63 % 0.0 in 608.0 W/m2 CLR
14:16 13.9 °F 7.2 °F 1025.6 in North 1.9 mph   64 % 0.0 in 605.0 W/m2 CLR
14:21 14.1 °F 7.2 °F 1025.3 in North 9.7 mph 9.7 mph 63 % 0.0 in 599.0 W/m2 CLR
14:26 14.3 °F 7.3 °F 1025.3 in NNW 7.4 mph 7.4 mph 63 % 0.0 in 594.0 W/m2 CLR
14:31 14.3 °F 7.1 °F 1025.3 in NW 9.3 mph 9.3 mph 62 % 0.0 in 589.0 W/m2 CLR
14:36 14.5 °F 7.3 °F 1025.3 in West 7.4 mph 7.4 mph 62 % 0.0 in 582.0 W/m2 CLR
14:41 14.8 °F 7.1 °F 1025.3 in NW 14.5 mph 14.5 mph 60 % 0.0 in 575.0 W/m2 CLR
14:46 14.7 °F 6.6 °F 1024.9 in NW 11.3 mph 11.3 mph 58 % 0.0 in 568.0 W/m2 CLR
14:51 14.7 °F 6.3 °F 1024.9 in West 11.1 mph 11.1 mph 57 % 0.0 in 561.0 W/m2 CLR
14:56 14.8 °F 6.7 °F 1024.9 in Calm     58 % 0.0 in 555.0 W/m2 CLR
15:01 14.9 °F 6.0 °F 1024.9 in NNW 9.3 mph 9.3 mph 55 % 0.0 in 545.0 W/m2 CLR
15:06 14.9 °F 5.9 °F 1024.9 in NNW 11.1 mph 11.1 mph 55 % 0.0 in 540.0 W/m2 CLR
15:11 15.0 °F 5.8 °F 1024.9 in WNW 5.6 mph   54 % 0.0 in 527.0 W/m2 CLR
15:17 15.0 °F 6.0 °F 1024.6 in North 11.1 mph 11.1 mph 55 % 0.0 in 519.0 W/m2 CLR
15:22 14.9 °F 5.7 °F 1024.6 in North 13.0 mph 13.0 mph 54 % 0.0 in 510.0 W/m2 CLR
15:27 14.8 °F 5.8 °F 1024.6 in Calm     55 % 0.0 in 497.0 W/m2 CLR
15:32 15.0 °F 6.0 °F 1024.6 in NNE 7.4 mph 7.4 mph 55 % 0.0 in 489.0 W/m2 CLR
15:36 15.2 °F 5.9 °F 1024.6 in Calm     54 % 0.0 in 478.0 W/m2 CLR
15:42 15.3 °F 5.8 °F 1024.6 in NNW 5.6 mph 5.6 mph 53 % 0.0 in 468.0 W/m2 CLR
15:47 15.4 °F 5.9 °F 1024.3 in NW 1.9 mph   53 % 0.0 in 455.0 W/m2 CLR
15:52 15.6 °F 5.8 °F 1024.3 in North 5.6 mph 5.6 mph 52 % 0.0 in 443.0 W/m2 CLR
15:57 15.6 °F 6.0 °F 1024.3 in North 14.8 mph 14.8 mph 53 % 0.0 in 432.0 W/m2 CLR
16:02 15.4 °F 5.3 °F 1024.3 in North 9.3 mph 9.3 mph 51 % 0.0 in 418.0 W/m2 CLR
16:07 15.3 °F 5.5 °F 1024.3 in Calm     52 % 0.0 in 406.0 W/m2 CLR
16:12 15.4 °F 5.1 °F 1024.3 in NNW 14.5 mph 14.5 mph 50 % 0.0 in 394.0 W/m2 CLR
16:17 15.3 °F 4.9 °F 1024.3 in North 8.0 mph 8.0 mph 50 % 0.0 in 380.0 W/m2 CLR
16:22 15.4 °F 5.6 °F 1024.3 in NNE 9.7 mph 9.7 mph 52 % 0.0 in 366.0 W/m2 CLR
16:27 15.4 °F 5.3 °F 1024.3 in North 7.4 mph 7.4 mph 51 % 0.0 in 353.0 W/m2 CLR
16:32 15.4 °F 5.3 °F 1024.3 in NNW 7.4 mph 7.4 mph 51 % 0.0 in 341.0 W/m2 CLR
16:37 15.4 °F 5.6 °F 1024.3 in NNE 5.6 mph 5.6 mph 52 % 0.0 in 325.0 W/m2 CLR
16:42 15.3 °F 5.5 °F 1024.3 in NNW 9.3 mph 9.3 mph 52 % 0.0 in 311.0 W/m2 CLR
16:47 15.3 °F 6.0 °F 1023.9 in North 11.1 mph 11.1 mph 54 % 0.0 in 297.0 W/m2 CLR
16:52 15.3 °F 5.7 °F 1023.9 in NNE 1.9 mph   53 % 0.0 in 285.0 W/m2 CLR
16:57 15.3 °F 5.8 °F 1023.9 in NNW 5.6 mph 5.6 mph 53 % 0.0 in 265.0 W/m2 CLR
17:02 15.3 °F 5.2 °F 1023.9 in Calm     51 % 0.0 in 251.0 W/m2 CLR
17:07 15.2 °F 5.7 °F 1023.9 in North 5.6 mph 5.6 mph 53 % 0.0 in 234.0 W/m2 CLR
17:12 15.2 °F 5.9 °F 1023.9 in NNW 7.4 mph 7.4 mph 54 % 0.0 in 216.0 W/m2 CLR
17:17 15.1 °F 5.3 °F 1023.9 in NNE 9.3 mph 9.3 mph 52 % 0.0 in 195.0 W/m2 CLR
17:22 14.9 °F 5.4 °F 1023.9 in North 8.0 mph 8.0 mph 53 % 0.0 in 178.0 W/m2 CLR
17:27 14.7 °F 5.2 °F 1023.9 in NNE 7.4 mph 7.4 mph 53 % 0.0 in 162.0 W/m2 CLR
17:32 14.6 °F 4.8 °F 1023.9 in North 5.6 mph 5.6 mph 52 % 0.0 in 144.0 W/m2 CLR
17:37 14.6 °F 4.8 °F 1023.9 in North 6.4 mph 6.4 mph 52 % 0.0 in 128.0 W/m2 CLR
17:42 14.4 °F 5.2 °F 1023.9 in Calm     54 % 0.0 in 109.0 W/m2 CLR
17:47 14.5 °F 5.0 °F 1023.9 in North 1.9 mph 1.9 mph 53 % 0.0 in 93.0 W/m2 CLR
17:52 14.4 °F 4.7 °F 1023.9 in Calm     52 % 0.0 in 79.0 W/m2 FEW
17:57 14.4 °F 5.2 °F 1023.9 in Calm     54 % 0.0 in 58.0 W/m2 SCT
18:02 14.4 °F 5.5 °F 1023.9 in Calm     55 % 0.0 in 51.0 W/m2 SCT
18:07 14.3 °F 5.4 °F 1023.9 in Calm     55 % 0.0 in 40.0 W/m2 BKN
18:12 14.2 °F 5.3 °F 1024.3 in Calm     55 % 0.0 in 28.0 W/m2 BKN
18:17 14.1 °F 5.4 °F 1024.3 in Calm     56 % 0.0 in 19.0 W/m2 BKN
18:22 13.9 °F 5.5 °F 1024.3 in Calm     57 % 0.0 in 14.0 W/m2 BKN
18:27 13.5 °F 5.2 °F 1024.3 in Calm     57 % 0.0 in 12.0 W/m2 BKN
18:32 13.2 °F 5.3 °F 1024.3 in Calm     59 % 0.0 in 9.0 W/m2 BKN
18:37 12.8 °F 5.3 °F 1024.3 in Calm     60 % 0.0 in 7.0 W/m2 BKN
18:42 12.6 °F 5.2 °F 1024.3 in Calm     61 % 0.0 in 0.0 W/m2 OVC
18:47 12.3 °F 5.3 °F 1024.3 in Calm     62 % 0.0 in 0.0 W/m2 OVC
18:52 12.0 °F 5.2 °F 1024.3 in Calm     63 % 0.0 in 0.0 W/m2 CLR
18:57 11.7 °F 5.3 °F 1024.3 in Calm     65 % 0.0 in 0.0 W/m2 CLR
19:02 11.4 °F 5.1 °F 1024.3 in Calm     65 % 0.0 in 0.0 W/m2 CLR
19:07 11.2 °F 5.3 °F 1024.6 in Calm     67 % 0.0 in 0.0 W/m2 CLR
19:12 10.8 °F 5.2 °F 1024.3 in Calm     68 % 0.0 in 0.0 W/m2 CLR
19:17 10.6 °F 5.2 °F 1024.6 in Calm     69 % 0.0 in 0.0 W/m2 CLR
19:22 10.2 °F 5.2 °F 1024.6 in Calm     71 % 0.0 in 0.0 W/m2 CLR
19:27 9.8 °F 5.0 °F 1024.6 in Calm     72 % 0.0 in 0.0 W/m2 CLR
19:32 9.5 °F 4.9 °F 1024.6 in Calm     73 % 0.0 in 0.0 W/m2 CLR
19:37 9.2 °F 4.8 °F 1024.6 in Calm     74 % 0.0 in 0.0 W/m2 CLR
19:42 8.9 °F 4.9 °F 1024.9 in Calm     76 % 0.0 in 0.0 W/m2 CLR
19:47 8.6 °F 4.8 °F 1024.9 in SW 5.6 mph 5.6 mph 77 % 0.0 in 0.0 W/m2 CLR
19:52 8.3 °F 4.6 °F 1024.9 in Calm     77 % 0.0 in 0.0 W/m2 CLR
19:57 8.1 °F 4.5 °F 1024.9 in Calm     78 % 0.0 in 0.0 W/m2 CLR
20:02 7.9 °F 4.5 °F 1024.9 in SW 1.9 mph 1.9 mph 79 % 0.0 in 0.0 W/m2 CLR
20:07 7.8 °F 4.4 °F 1024.9 in Calm     79 % 0.0 in 0.0 W/m2 CLR
20:12 7.6 °F 4.4 °F 1024.9 in Calm     80 % 0.0 in 0.0 W/m2 CLR
20:17 7.5 °F 4.3 °F 1024.9 in Calm     80 % 0.0 in 0.0 W/m2 CLR
20:22 7.4 °F 4.3 °F 1024.9 in Calm   0.2 mph 81 % 0.0 in 0.0 W/m2 CLR
20:27 7.2 °F 4.2 °F 1024.9 in SW 5.6 mph 5.6 mph 81 % 0.0 in 0.0 W/m2 CLR
20:32 7.0 °F 4.1 °F 1024.9 in SW 5.6 mph 5.6 mph 82 % 0.0 in 0.0 W/m2 CLR
20:37 6.9 °F 4.0 °F 1025.3 in Calm     82 % 0.0 in 0.0 W/m2 CLR
20:42 6.8 °F 3.9 °F 1025.3 in Calm     82 % 0.0 in 0.0 W/m2 CLR
20:47 6.7 °F 4.0 °F 1025.3 in Calm   0.2 mph 83 % 0.0 in 0.0 W/m2 CLR
20:52 6.5 °F 3.8 °F 1025.3 in Calm     83 % 0.0 in 0.0 W/m2 CLR
20:57 6.4 °F 3.9 °F 1025.3 in Calm     84 % 0.0 in 0.0 W/m2 CLR
21:02 6.3 °F 3.8 °F 1025.3 in Calm     84 % 0.0 in 0.0 W/m2 CLR
21:07 6.2 °F 3.7 °F 1025.3 in Calm     84 % 0.0 in 0.0 W/m2 CLR
21:12 6.1 °F 3.6 °F 1025.3 in Calm     84 % 0.0 in 0.0 W/m2 CLR
21:13 6.1 °F 3.6 °F 1025.3 in Calm     84 % 0.0 in 0.0 W/m2 CLR
21:18 5.9 °F 3.6 °F 1025.3 in Calm     85 % 0.0 in 0.0 W/m2 CLR
21:23 5.8 °F 3.5 °F 1025.3 in Calm     85 % 0.0 in 0.0 W/m2 CLR
21:28 5.7 °F 3.4 °F 1025.3 in Calm     85 % 0.0 in 0.0 W/m2 CLR
21:33 5.6 °F 3.4 °F 1025.3 in Calm     86 % 0.0 in 0.0 W/m2 CLR
21:38 5.5 °F 3.3 °F 1025.3 in Calm     86 % 0.0 in 0.0 W/m2 CLR
21:43 5.5 °F 3.3 °F 1025.3 in Calm     86 % 0.0 in 0.0 W/m2 CLR
21:48 5.6 °F 3.4 °F 1025.3 in Calm     86 % 0.0 in 0.0 W/m2 CLR
21:53 5.5 °F 3.3 °F 1025.6 in Calm     86 % 0.0 in 0.0 W/m2 CLR
21:58 5.4 °F 3.3 °F 1025.6 in Calm     86 % 0.0 in 0.0 W/m2 CLR
22:03 5.3 °F 2.9 °F 1025.6 in Calm     85 % 0.0 in 0.0 W/m2 CLR
22:08 5.2 °F 3.0 °F 1025.6 in WSW 3.7 mph 3.7 mph 86 % 0.0 in 0.0 W/m2 CLR
22:13 5.2 °F 3.2 °F 1025.6 in SW 3.7 mph   87 % 0.0 in 0.0 W/m2 CLR
22:18 5.2 °F 3.1 °F 1025.6 in Calm     86 % 0.0 in 0.0 W/m2 CLR
22:23 5.0 °F 2.8 °F 1025.6 in Calm     86 % 0.0 in 0.0 W/m2 CLR
22:28 4.8 °F 2.6 °F 1026.0 in Calm     86 % 0.0 in 0.0 W/m2 CLR
22:33 4.6 °F 2.6 °F 1026.0 in Calm     87 % 0.0 in 0.0 W/m2 CLR
22:38 4.5 °F 2.7 °F 1026.0 in Calm     88 % 0.0 in 0.0 W/m2 CLR
22:43 4.5 °F 2.7 °F 1026.0 in Calm     88 % 0.0 in 0.0 W/m2 CLR
22:48 4.3 °F 2.3 °F 1026.0 in Calm     87 % 0.0 in 0.0 W/m2 CLR
22:53 4.2 °F 2.3 °F 1026.0 in Calm     88 % 0.0 in 0.0 W/m2 CLR
22:58 4.1 °F 2.3 °F 1026.0 in SW 1.9 mph   88 % 0.0 in 0.0 W/m2 CLR
23:03 4.1 °F 2.3 °F 1026.0 in Calm     88 % 0.0 in 0.0 W/m2 CLR
23:08 4.0 °F 2.3 °F 1026.0 in Calm     89 % 0.0 in 0.0 W/m2 CLR
23:13 4.0 °F 2.3 °F 1026.0 in SW 3.7 mph   89 % 0.0 in 0.0 W/m2 CLR
23:18 4.0 °F 2.3 °F 1026.0 in Calm     89 % 0.0 in 0.0 W/m2 CLR
23:23 3.8 °F 2.2 °F 1026.0 in Calm     89 % 0.0 in 0.0 W/m2 CLR
23:29 3.8 °F 2.1 °F 1026.0 in Calm     89 % 0.0 in 0.0 W/m2 CLR
23:34 3.7 °F 2.1 °F 1026.0 in Calm     89 % 0.0 in 0.0 W/m2 CLR
23:39 3.7 °F 2.0 °F 1026.0 in Calm     89 % 0.0 in 0.0 W/m2 CLR
23:44 3.6 °F 1.9 °F 1026.0 in Calm     89 % 0.0 in 0.0 W/m2 CLR
23:49 3.5 °F 1.8 °F 1026.0 in Calm     89 % 0.0 in 0.0 W/m2 CLR
23:54 3.4 °F 1.9 °F 1026.0 in Calm     90 % 0.0 in 0.0 W/m2 CLR
23:59 3.3 °F 1.8 °F 1026.0 in Calm     90 % 0.0 in 0.0 W/m2 CLR
Lo Temps de Massalio
Compliments of Weather Underground - 1.25 mb